createdAt,value
2022-12-11T00:00:59.675Z,99268.91
2022-12-11T00:03:01.080Z,99266.13
2022-12-11T00:05:02.584Z,99264.53
2022-12-11T00:07:03.963Z,99265.50
2022-12-11T00:09:05.433Z,99263.38
2022-12-11T00:11:12.582Z,99264.69
2022-12-11T00:13:13.976Z,99262.56
2022-12-11T00:15:15.572Z,99258.84
2022-12-11T00:17:16.911Z,99263.72
2022-12-11T00:19:18.316Z,99264.34
2022-12-11T00:21:19.705Z,99259.66
2022-12-11T00:23:21.164Z,99268.25
2022-12-11T00:25:22.512Z,99258.31
2022-12-11T00:27:24.221Z,99261.44
2022-12-11T00:29:27.475Z,99258.66
2022-12-11T00:31:29.835Z,99260.97
2022-12-11T00:33:31.590Z,99261.13
2022-12-11T00:35:32.968Z,99263.38
2022-12-11T00:37:34.448Z,99254.47
2022-12-11T00:39:37.447Z,99260.16
2022-12-11T00:41:38.803Z,99256.41
2022-12-11T00:43:40.523Z,99268.09
2022-12-11T00:45:44.696Z,99264.06
2022-12-11T00:47:46.209Z,99259.00
2022-12-11T00:49:49.967Z,99258.69
2022-12-11T00:51:51.799Z,99266.34
2022-12-11T00:53:53.482Z,99265.69
2022-12-11T00:55:54.916Z,99265.84
2022-12-11T00:57:58.261Z,99269.78
2022-12-11T00:59:59.661Z,99270.56
2022-12-11T01:02:00.996Z,99262.78
2022-12-11T01:04:02.510Z,99266.03
2022-12-11T01:06:04.938Z,99262.78
2022-12-11T01:08:06.602Z,99266.22
2022-12-11T01:10:27.596Z,99260.84
2022-12-11T01:12:29.133Z,99268.63
2022-12-11T01:14:30.502Z,99264.88
2022-12-11T01:16:32.532Z,99272.19
2022-12-11T01:18:33.944Z,99269.13
2022-12-11T01:20:37.187Z,99269.59
2022-12-11T01:22:39.412Z,99265.38
2022-12-11T01:24:40.816Z,99265.38
2022-12-11T01:26:42.185Z,99272.03
2022-12-11T01:28:44.354Z,99271.56
2022-12-11T01:30:45.985Z,99271.72
2022-12-11T01:32:47.482Z,99264.91
2022-12-11T01:34:48.998Z,99268.47
2022-12-11T01:36:52.329Z,99265.25
2022-12-11T01:38:54.364Z,99269.16
2022-12-11T01:40:55.735Z,99263.28
2022-12-11T01:42:57.146Z,99263.94
2022-12-11T01:45:27.291Z,99261.03
2022-12-11T01:47:28.838Z,99265.88
2022-12-11T01:49:30.272Z,99261.03
2022-12-11T01:51:35.768Z,99260.22
2022-12-11T01:53:42.449Z,99268.00
2022-12-11T01:55:45.000Z,99271.56
2022-12-11T01:57:50.443Z,99269.28
2022-12-11T01:59:51.885Z,99265.06
2022-12-11T02:02:30.020Z,99266.38
2022-12-11T02:04:34.767Z,99271.09
2022-12-11T02:06:46.862Z,99274.97
2022-12-11T02:08:48.304Z,99265.06
2022-12-11T02:11:17.644Z,99271.41
2022-12-11T02:13:38.306Z,99267.34
2022-12-11T02:15:51.427Z,99261.03
2022-12-11T02:17:55.791Z,99255.34
2022-12-11T02:19:57.088Z,99256.31
2022-12-11T02:22:02.732Z,99254.50
2022-12-11T02:24:26.495Z,99253.03
2022-12-11T02:26:51.420Z,99250.63
2022-12-11T02:28:58.003Z,99255.97
2022-12-11T02:31:05.422Z,99247.19
2022-12-11T02:33:09.582Z,99246.56
2022-12-11T02:35:23.671Z,99246.06
2022-12-11T02:37:29.604Z,99250.44
2022-12-11T02:39:33.519Z,99249.78
2022-12-11T02:41:35.251Z,99251.91
2022-12-11T02:43:37.828Z,99251.91
2022-12-11T02:45:41.632Z,99246.88
2022-12-11T02:47:47.858Z,99254.19
2022-12-11T02:49:50.771Z,99252.22
2022-12-11T02:51:54.552Z,99250.78
2022-12-11T02:53:58.927Z,99247.66
2022-12-11T02:56:12.988Z,99249.97
2022-12-11T02:58:19.553Z,99245.72
2022-12-11T03:00:21.844Z,99246.38
2022-12-11T03:02:23.388Z,99241.66
2022-12-11T03:04:24.902Z,99237.13
2022-12-11T03:06:32.870Z,99238.25
2022-12-11T03:08:34.263Z,99232.06
2022-12-11T03:10:41.839Z,99232.06
2022-12-11T03:12:53.042Z,99241.97
2022-12-11T03:26:43.883Z,99227.34
2022-12-11T03:28:56.538Z,99232.06
2022-12-11T03:31:02.958Z,99225.56
2022-12-11T03:33:13.596Z,99224.94
2022-12-11T03:35:25.053Z,99226.22
2022-12-11T03:37:31.298Z,99230.63
2022-12-11T03:39:37.723Z,99232.06
2022-12-11T03:41:41.026Z,99225.09
2022-12-11T03:43:42.805Z,99227.34
2022-12-11T03:45:46.915Z,99223.63
2022-12-11T03:47:50.439Z,99224.13
2022-12-11T03:49:53.719Z,99223.28
2022-12-11T03:51:57.966Z,99224.59
2022-12-11T03:54:00.068Z,99227.97
2022-12-11T03:56:04.264Z,99225.38
2022-12-11T03:58:05.685Z,99221.16
2022-12-11T04:00:10.618Z,99228.16
2022-12-11T04:02:12.152Z,99222.63
2022-12-11T04:04:13.892Z,99222.47
2022-12-11T04:06:15.302Z,99223.59
2022-12-11T04:08:20.681Z,99219.69
2022-12-11T04:10:22.124Z,99226.50
2022-12-11T04:12:23.671Z,99226.19
2022-12-11T04:14:43.984Z,99227.47
2022-12-11T04:16:45.329Z,99229.25
2022-12-11T04:19:05.052Z,99230.75
2022-12-11T04:21:24.818Z,99227.47
2022-12-11T04:23:44.534Z,99231.22
2022-12-11T04:25:50.922Z,99230.41
2022-12-11T04:27:52.951Z,99230.06
2022-12-11T04:29:54.318Z,99227.81
2022-12-11T04:31:55.853Z,99235.78
2022-12-11T04:33:57.253Z,99232.03
2022-12-11T04:35:59.707Z,99230.56
2022-12-11T04:38:09.036Z,99229.44
2022-12-11T04:40:13.213Z,99233.34
2022-12-11T04:42:14.673Z,99226.34
2022-12-11T04:44:16.051Z,99227.34
2022-12-11T04:46:20.674Z,99223.44
2022-12-11T04:48:22.031Z,99223.09
2022-12-11T04:50:23.396Z,99220.34
2022-12-11T04:52:24.808Z,99213.84
2022-12-11T04:54:26.269Z,99223.44
2022-12-11T04:56:27.697Z,99212.91
2022-12-11T04:58:29.103Z,99217.91
2022-12-11T05:00:30.460Z,99223.44
2022-12-11T05:02:35.115Z,99227.00
2022-12-11T05:04:36.570Z,99222.16
2022-12-11T05:06:37.944Z,99221.16
2022-12-11T05:08:41.435Z,99217.47
2022-12-11T05:10:48.586Z,99221.50
2022-12-11T05:12:51.457Z,99223.13
2022-12-11T05:14:53.551Z,99227.19
2022-12-11T05:16:54.896Z,99226.53
2022-12-11T05:18:56.268Z,99228.63
2022-12-11T05:21:03.165Z,99228.28
2022-12-11T05:23:04.559Z,99226.34
2022-12-11T05:25:06.653Z,99227.13
2022-12-11T05:27:08.029Z,99226.00
2022-12-11T05:29:09.596Z,99222.13
2022-12-11T05:31:16.972Z,99222.59
2022-12-11T05:33:18.389Z,99231.22
2022-12-11T05:35:19.788Z,99225.19
2022-12-11T05:37:21.288Z,99218.22
2022-12-11T05:39:22.675Z,99219.53
2022-12-11T05:41:26.070Z,99222.75
2022-12-11T05:43:28.987Z,99214.97
2022-12-11T05:45:30.361Z,99219.03
2022-12-11T05:47:31.809Z,99216.44
2022-12-11T05:49:33.179Z,99214.00
2022-12-11T05:51:34.995Z,99207.28
2022-12-11T05:53:38.182Z,99205.50
2022-12-11T05:55:39.516Z,99207.94
2022-12-11T05:57:40.987Z,99200.31
2022-12-11T05:59:42.369Z,99206.16
2022-12-11T06:01:43.803Z,99207.00
2022-12-11T06:03:45.639Z,99208.44
2022-12-11T06:05:46.993Z,99224.38
2022-12-11T06:07:48.398Z,99207.78
2022-12-11T06:09:49.793Z,99212.66
2022-12-11T06:11:51.142Z,99209.41
2022-12-11T06:13:53.128Z,99211.84
2022-12-11T06:15:54.635Z,99207.78
2022-12-11T06:17:56.072Z,99205.00
2022-12-11T06:19:57.476Z,99197.22
2022-12-11T06:21:58.815Z,99200.63
2022-12-11T06:24:02.365Z,99194.47
2022-12-11T06:26:04.138Z,99190.84
2022-12-11T06:28:05.505Z,99192.50
2022-12-11T06:30:07.980Z,99183.25
2022-12-11T06:32:09.387Z,99187.13
2022-12-11T06:34:14.086Z,99194.28
2022-12-11T06:36:18.667Z,99192.16
2022-12-11T06:38:20.065Z,99195.44
2022-12-11T06:40:21.560Z,99191.69
2022-12-11T06:42:22.940Z,99193.66
2022-12-11T06:44:24.982Z,99192.97
2022-12-11T06:46:26.353Z,99198.19
2022-12-11T06:48:28.582Z,99197.06
2022-12-11T06:50:30.039Z,99202.88
2022-12-11T06:52:31.519Z,99196.41
2022-12-11T06:54:33.051Z,99203.03
2022-12-11T06:56:34.843Z,99203.22
2022-12-11T06:58:37.411Z,99200.63
2022-12-11T07:00:39.112Z,99199.47
2022-12-11T07:02:40.660Z,99203.03
2022-12-11T07:04:42.446Z,99199.81
2022-12-11T07:06:44.273Z,99203.38
2022-12-11T07:08:45.701Z,99201.13
2022-12-11T07:10:47.077Z,99204.38
2022-12-11T07:12:48.516Z,99205.25
2022-12-11T07:14:49.915Z,99210.22
2022-12-11T07:16:51.406Z,99209.94
2022-12-11T07:18:52.779Z,99206.50
2022-12-11T07:20:54.416Z,99204.69
2022-12-11T07:22:55.921Z,99212.50
2022-12-11T07:24:57.357Z,99204.53
2022-12-11T07:26:59.712Z,99211.03
2022-12-11T07:29:01.158Z,99201.59
2022-12-11T07:31:07.495Z,99203.38
2022-12-11T07:33:08.932Z,99208.78
2022-12-11T07:35:10.580Z,99205.97
2022-12-11T07:37:12.188Z,99207.63
2022-12-11T07:39:13.764Z,99205.00
2022-12-11T07:41:16.156Z,99205.34
2022-12-11T07:43:17.547Z,99201.94
2022-12-11T07:45:18.974Z,99197.72
2022-12-11T07:47:20.337Z,99197.56
2022-12-11T07:49:21.791Z,99205.00
2022-12-11T07:51:28.712Z,99203.84
2022-12-11T07:53:30.074Z,99212.31
2022-12-11T07:55:32.065Z,99201.09
2022-12-11T07:57:33.458Z,99209.06
2022-12-11T07:59:34.888Z,99210.22
2022-12-11T08:01:37.937Z,99205.34
2022-12-11T08:03:39.895Z,99202.06
2022-12-11T08:05:48.731Z,99205.34
2022-12-11T08:07:50.176Z,99211.31
2022-12-11T08:09:51.599Z,99213.59
2022-12-11T08:11:53.048Z,99210.19
2022-12-11T08:13:55.065Z,99215.03
2022-12-11T08:15:56.629Z,99208.22
2022-12-11T08:17:57.976Z,99213.06
2022-12-11T08:19:59.352Z,99212.09
2022-12-11T08:22:00.711Z,99214.06
2022-12-11T08:24:02.111Z,99215.53
2022-12-11T08:26:06.047Z,99217.00
2022-12-11T08:28:07.398Z,99218.28
2022-12-11T08:30:09.772Z,99213.72
2022-12-11T08:32:13.559Z,99222.16
2022-12-11T08:34:14.952Z,99216.16
2022-12-11T08:36:20.662Z,99215.00
2022-12-11T08:38:25.346Z,99209.63
2022-12-11T08:40:27.089Z,99217.16
2022-12-11T08:42:28.488Z,99217.97
2022-12-11T08:44:30.035Z,99217.78
2022-12-11T08:46:32.467Z,99216.97
2022-12-11T08:48:35.454Z,99222.00
2022-12-11T08:50:37.586Z,99217.63
2022-12-11T08:52:38.992Z,99215.84
2022-12-11T08:54:40.462Z,99212.41
2022-12-11T08:56:41.852Z,99206.75
2022-12-11T08:58:44.340Z,99210.94
2022-12-11T09:00:45.680Z,99202.66
2022-12-11T09:02:48.096Z,99210.09
2022-12-11T09:04:50.458Z,99209.63
2022-12-11T09:06:52.008Z,99209.00
2022-12-11T09:08:53.902Z,99208.66
2022-12-11T09:10:55.259Z,99214.00
2022-12-11T09:12:56.621Z,99207.03
2022-12-11T09:14:57.963Z,99214.00
2022-12-11T09:16:59.366Z,99210.91
2022-12-11T09:19:00.699Z,99212.22
2022-12-11T09:21:05.404Z,99209.50
2022-12-11T09:23:06.807Z,99212.88
2022-12-11T09:25:09.768Z,99213.03
2022-12-11T09:27:11.275Z,99222.13
2022-12-11T09:29:13.170Z,99223.28
2022-12-11T09:31:17.870Z,99215.31
2022-12-11T09:33:19.475Z,99225.06
2022-12-11T09:35:20.840Z,99221.16
2022-12-11T09:37:22.286Z,99220.88
2022-12-11T09:39:24.582Z,99213.69
2022-12-11T09:41:40.310Z,99213.03
2022-12-11T09:43:49.583Z,99212.09
2022-12-11T09:45:51.290Z,99213.38
2022-12-11T09:47:56.167Z,99210.28
2022-12-11T09:50:09.615Z,99212.06
2022-12-11T09:52:17.187Z,99211.13
2022-12-11T09:54:18.618Z,99206.06
2022-12-11T09:56:20.035Z,99202.00
2022-12-11T09:58:31.711Z,99204.56
2022-12-11T10:00:41.467Z,99204.56
2022-12-11T10:03:10.399Z,99200.16
2022-12-11T10:05:35.509Z,99198.84
2022-12-11T10:07:46.201Z,99196.47
2022-12-11T10:10:23.255Z,99191.56
2022-12-11T10:12:48.247Z,99186.84
2022-12-11T10:15:20.494Z,99187.94
2022-12-11T10:17:31.076Z,99191.81
2022-12-11T10:19:33.038Z,99187.25
2022-12-11T10:21:41.544Z,99195.25
2022-12-11T10:23:53.659Z,99186.63
2022-12-11T10:26:15.976Z,99183.50
2022-12-11T10:28:20.436Z,99180.59
2022-12-11T10:30:37.464Z,99176.69
2022-12-11T10:32:53.343Z,99174.34
2022-12-11T10:35:03.953Z,99175.00
2022-12-11T10:37:05.431Z,99179.56
2022-12-11T10:39:16.013Z,99181.03
2022-12-11T10:41:20.951Z,99176.91
2022-12-11T10:43:33.615Z,99174.16
2022-12-11T10:45:35.082Z,99176.75
2022-12-11T10:47:36.483Z,99177.09
2022-12-11T10:49:42.766Z,99172.56
2022-12-11T10:51:44.481Z,99175.47
2022-12-11T10:53:51.527Z,99171.25
2022-12-11T10:55:53.613Z,99172.06
2022-12-11T10:58:02.752Z,99164.09
2022-12-11T11:00:07.362Z,99166.34
2022-12-11T11:02:40.521Z,99165.06
2022-12-11T11:04:44.736Z,99164.44
2022-12-11T11:06:46.170Z,99166.84
2022-12-11T11:08:53.852Z,99168.28
2022-12-11T11:10:58.195Z,99162.94
2022-12-11T11:13:03.021Z,99156.91
2022-12-11T11:15:15.146Z,99153.69
2022-12-11T11:17:17.554Z,99156.91
2022-12-11T11:19:29.435Z,99146.50
2022-12-11T11:21:32.428Z,99151.91
2022-12-11T11:23:34.483Z,99155.63
2022-12-11T11:25:35.936Z,99151.44
2022-12-11T11:27:45.751Z,99163.44
2022-12-11T11:29:51.660Z,99162.97
2022-12-11T11:31:54.794Z,99159.88
2022-12-11T11:33:58.760Z,99160.56
2022-12-11T11:36:05.965Z,99149.47
2022-12-11T11:38:18.459Z,99145.53
2022-12-11T11:40:30.357Z,99149.09
2022-12-11T11:42:47.223Z,99151.25
2022-12-11T11:45:05.240Z,99144.88
2022-12-11T11:47:24.220Z,99144.41
2022-12-11T11:49:50.296Z,99136.91
2022-12-11T11:52:01.058Z,99136.44
2022-12-11T11:54:20.711Z,99136.75
2022-12-11T11:56:35.003Z,99138.53
2022-12-11T11:58:47.972Z,99133.94
2022-12-11T12:00:50.189Z,99139.66
2022-12-11T12:02:56.204Z,99135.13
2022-12-11T12:04:57.649Z,99136.56
2022-12-11T12:07:04.676Z,99136.19
2022-12-11T12:09:26.589Z,99131.66
2022-12-11T12:11:49.588Z,99134.94
2022-12-11T12:14:02.456Z,99131.66
2022-12-11T12:16:22.919Z,99130.84
2022-12-11T12:19:08.391Z,99128.41
2022-12-11T12:21:36.950Z,99130.03
2022-12-11T12:23:50.188Z,99125.63
2022-12-11T12:26:08.842Z,99121.91
2022-12-11T12:28:28.978Z,99123.84
2022-12-11T12:30:46.727Z,99116.03
2022-12-11T12:32:56.905Z,99119.25
2022-12-11T12:35:12.755Z,99117.13
2022-12-11T12:37:48.514Z,99113.53
2022-12-11T12:40:08.517Z,99114.41
2022-12-11T12:42:25.149Z,99112.63
2022-12-11T12:44:35.094Z,99110.81
2022-12-11T12:47:00.991Z,99119.50
2022-12-11T12:49:04.872Z,99109.09
2022-12-11T12:51:06.819Z,99113.13
2022-12-11T12:53:13.466Z,99110.94
2022-12-11T12:55:31.721Z,99122.09
2022-12-11T12:57:34.983Z,99115.56
2022-12-11T12:59:36.400Z,99117.81
2022-12-11T13:01:38.656Z,99115.22
2022-12-11T13:04:47.437Z,99110.00
2022-12-11T13:06:47.565Z,99106.09
2022-12-11T13:08:51.700Z,99111.00
2022-12-11T13:11:03.604Z,99112.44
2022-12-11T13:13:06.603Z,99101.41
2022-12-11T13:15:32.018Z,99105.44
2022-12-11T13:17:38.169Z,99096.66
2022-12-11T13:19:42.730Z,99094.91
2022-12-11T13:21:59.876Z,99105.78
2022-12-11T13:24:28.401Z,99101.69
2022-12-11T13:26:31.899Z,99104.47
2022-12-11T13:28:54.029Z,99096.28
2022-12-11T13:31:01.459Z,99104.47
2022-12-11T13:33:14.838Z,99107.06
2022-12-11T13:35:18.248Z,99101.84
2022-12-11T13:37:41.119Z,99101.13
2022-12-11T13:39:47.095Z,99104.63
2022-12-11T13:41:55.185Z,99105.56
2022-12-11T13:43:57.869Z,99107.88
2022-12-11T13:46:02.976Z,99106.34
2022-12-11T13:48:16.987Z,99101.13
2022-12-11T13:50:24.928Z,99101.34
2022-12-11T13:52:27.601Z,99105.38
2022-12-11T13:54:31.904Z,99104.56
2022-12-11T13:56:34.284Z,99112.09
2022-12-11T13:58:38.807Z,99105.72
2022-12-11T14:00:40.477Z,99106.19
2022-12-11T14:02:42.618Z,99113.38
2022-12-11T14:04:44.877Z,99109.75
2022-12-11T14:06:46.370Z,99108.03
2022-12-11T14:08:51.568Z,99110.94
2022-12-11T14:10:54.315Z,99106.34
2022-12-11T14:13:21.948Z,99112.72
2022-12-11T14:15:23.706Z,99107.16
2022-12-11T14:17:27.812Z,99105.56
2022-12-11T14:19:29.394Z,99115.31
2022-12-11T14:21:30.805Z,99114.16
2022-12-11T14:23:36.570Z,99115.78
2022-12-11T14:25:37.944Z,99115.69
2022-12-11T14:27:50.890Z,99115.47
2022-12-11T14:29:52.699Z,99113.25
2022-12-11T14:31:54.895Z,99106.91
2022-12-11T14:34:03.028Z,99117.94
2022-12-11T14:36:06.412Z,99110.13
2022-12-11T14:38:16.635Z,99110.47
2022-12-11T14:40:22.911Z,99115.03
2022-12-11T14:42:32.436Z,99109.66
2022-12-11T14:44:56.486Z,99117.47
2022-12-11T14:47:03.520Z,99118.28
2022-12-11T14:49:26.041Z,99122.22
2022-12-11T14:51:33.526Z,99117.97
2022-12-11T14:53:51.044Z,99120.13
2022-12-11T14:55:53.096Z,99126.59
2022-12-11T14:58:02.557Z,99125.97
2022-12-11T15:00:05.194Z,99120.78
2022-12-11T15:02:29.932Z,99132.16
2022-12-11T15:04:33.237Z,99127.78
2022-12-11T15:06:43.987Z,99134.94
2022-12-11T15:08:45.501Z,99135.94
2022-12-11T15:11:10.337Z,99142.56
2022-12-11T15:13:13.863Z,99138.53
2022-12-11T15:15:17.195Z,99133.50
2022-12-11T15:17:23.547Z,99136.09
2022-12-11T15:19:30.587Z,99131.88
2022-12-11T15:21:36.207Z,99136.97
2022-12-11T15:23:59.886Z,99137.59
2022-12-11T15:26:02.613Z,99149.09
2022-12-11T15:28:04.204Z,99136.44
2022-12-11T15:30:20.005Z,99138.59
2022-12-11T15:32:21.833Z,99141.34
2022-12-11T15:34:23.479Z,99145.72
2022-12-11T15:36:31.254Z,99143.94
2022-12-11T15:38:42.092Z,99148.19
2022-12-11T15:40:43.445Z,99141.34
2022-12-11T15:42:45.192Z,99141.19
2022-12-11T15:44:46.638Z,99141.53
2022-12-11T15:46:48.030Z,99145.94
2022-12-11T15:48:50.192Z,99136.34
2022-12-11T15:51:17.054Z,99135.31
2022-12-11T15:53:18.423Z,99141.34
2022-12-11T15:55:21.184Z,99133.91
2022-12-11T15:57:24.521Z,99142.34
2022-12-11T15:59:26.112Z,99149.34
2022-12-11T16:01:27.589Z,99146.38
2022-12-11T16:03:29.081Z,99150.31
2022-12-11T16:05:30.470Z,99149.69
2022-12-11T16:07:32.596Z,99156.69
2022-12-11T16:09:34.549Z,99154.69
2022-12-11T16:11:35.912Z,99151.13
2022-12-11T16:13:37.299Z,99155.53
2022-12-11T16:15:41.372Z,99147.56
2022-12-11T16:17:42.950Z,99153.72
2022-12-11T16:19:44.600Z,99149.69
2022-12-11T16:21:45.966Z,99146.91
2022-12-11T16:23:47.363Z,99152.09
2022-12-11T16:25:52.189Z,99151.00
2022-12-11T16:28:02.455Z,99145.00
2022-12-11T16:30:05.036Z,99152.28
2022-12-11T16:32:08.239Z,99150.47
2022-12-11T16:34:09.687Z,99144.50
2022-12-11T16:36:15.815Z,99143.69
2022-12-11T16:38:17.251Z,99144.50
2022-12-11T16:40:19.177Z,99138.97
2022-12-11T16:42:20.575Z,99141.22
2022-12-11T16:44:24.351Z,99138.28
2022-12-11T16:46:25.876Z,99143.69
2022-12-11T16:48:27.396Z,99145.13
2022-12-11T16:50:28.762Z,99149.50
2022-12-11T16:52:31.969Z,99143.47
2022-12-11T16:54:33.325Z,99139.91
2022-12-11T16:56:34.862Z,99142.34
2022-12-11T16:58:36.285Z,99138.13
2022-12-11T17:00:38.226Z,99137.81
2022-12-11T17:02:39.868Z,99134.09
2022-12-11T17:04:41.939Z,99132.63
2022-12-11T17:06:46.729Z,99135.06
2022-12-11T17:08:48.224Z,99139.28
2022-12-11T17:10:51.151Z,99143.69
2022-12-11T17:12:52.535Z,99143.84
2022-12-11T17:14:54.827Z,99146.44
2022-12-11T17:16:56.654Z,99142.88
2022-12-11T17:18:58.148Z,99137.66
2022-12-11T17:21:00.281Z,99136.03
2022-12-11T17:23:01.678Z,99135.22
2022-12-11T17:25:03.543Z,99139.78
2022-12-11T17:27:04.892Z,99142.41
2022-12-11T17:29:06.605Z,99138.63
2022-12-11T17:31:12.281Z,99143.69
2022-12-11T17:33:13.703Z,99141.06
2022-12-11T17:35:15.076Z,99138.47
2022-12-11T17:37:17.295Z,99133.06
2022-12-11T17:39:18.761Z,99139.28
2022-12-11T17:41:21.752Z,99130.31
2022-12-11T17:43:23.197Z,99138.63
2022-12-11T17:45:24.706Z,99138.63
2022-12-11T17:47:26.159Z,99139.28
2022-12-11T17:49:27.624Z,99141.69
2022-12-11T17:51:29.014Z,99141.06
2022-12-11T17:53:30.392Z,99139.91
2022-12-11T17:55:32.503Z,99131.28
2022-12-11T17:57:34.363Z,99133.72
2022-12-11T17:59:35.729Z,99130.31
2022-12-11T18:01:37.525Z,99124.13
2022-12-11T18:03:40.196Z,99129.34
2022-12-11T18:05:45.222Z,99127.53
2022-12-11T18:07:46.649Z,99132.09
2022-12-11T18:09:48.035Z,99123.31
2022-12-11T18:11:49.430Z,99134.72
2022-12-11T18:13:52.363Z,99129.34
2022-12-11T18:16:02.929Z,99138.13
2022-12-11T18:18:04.962Z,99142.66
2022-12-11T18:20:06.852Z,99136.69
2022-12-11T18:22:08.190Z,99142.50
2022-12-11T18:24:10.339Z,99130.31
2022-12-11T18:26:14.338Z,99138.28
2022-12-11T18:28:15.732Z,99133.28
2022-12-11T18:30:17.504Z,99136.84
2022-12-11T18:32:18.912Z,99122.06
2022-12-11T18:34:20.273Z,99138.47
2022-12-11T18:36:21.912Z,99133.44
2022-12-11T18:38:23.900Z,99137.81
2022-12-11T18:40:25.282Z,99137.19
2022-12-11T18:42:34.888Z,99132.34
2022-12-11T18:44:36.296Z,99135.22
2022-12-11T18:46:39.414Z,99141.22
2022-12-11T18:48:42.399Z,99136.22
2022-12-11T18:50:48.516Z,99141.59
2022-12-11T18:52:53.904Z,99137.00
2022-12-11T18:54:55.312Z,99129.84
2022-12-11T18:56:56.707Z,99139.44
2022-12-11T18:58:58.100Z,99133.28
2022-12-11T19:00:59.594Z,99138.47
2022-12-11T19:03:02.001Z,99137.66
2022-12-11T19:05:03.628Z,99139.09
2022-12-11T19:07:04.958Z,99134.25
2022-12-11T19:09:08.975Z,99136.03
2022-12-11T19:11:14.712Z,99127.06
2022-12-11T19:13:16.145Z,99138.47
2022-12-11T19:15:23.985Z,99139.44
2022-12-11T19:17:25.708Z,99132.63
2022-12-11T19:19:27.095Z,99142.88
2022-12-11T19:21:28.581Z,99134.75
2022-12-11T19:23:29.982Z,99146.44
2022-12-11T19:25:32.336Z,99149.84
2022-12-11T19:27:33.760Z,99147.41
2022-12-11T19:29:35.158Z,99144.66
2022-12-11T19:31:36.624Z,99142.88
2022-12-11T19:33:39.738Z,99143.03
2022-12-11T19:35:41.589Z,99137.66
2022-12-11T19:37:43.139Z,99141.22
2022-12-11T19:39:44.532Z,99143.84
2022-12-11T19:41:46.374Z,99140.25
2022-12-11T19:43:47.849Z,99140.25
2022-12-11T19:45:49.522Z,99142.06
2022-12-11T19:47:50.969Z,99137.00
2022-12-11T19:49:52.326Z,99140.25
2022-12-11T19:51:53.694Z,99139.44
2022-12-11T19:53:55.808Z,99134.41
2022-12-11T19:55:57.167Z,99137.34
2022-12-11T19:57:58.738Z,99132.97
2022-12-11T20:00:01.068Z,99129.19
2022-12-11T20:02:02.451Z,99129.38
2022-12-11T20:04:08.107Z,99136.22
2022-12-11T20:06:10.002Z,99129.38
2022-12-11T20:08:43.091Z,99134.59
2022-12-11T20:10:36.603Z,99133.63
2022-12-11T20:12:38.227Z,99137.69
2022-12-11T20:14:39.652Z,99138.06
2022-12-11T20:19:02.801Z,99138.69
2022-12-11T20:21:07.720Z,99138.69
2022-12-11T20:23:09.508Z,99142.91
2022-12-11T20:25:11.332Z,99145.50
2022-12-11T20:27:12.867Z,99144.22
2022-12-11T20:29:14.906Z,99138.88
2022-12-11T20:31:20.531Z,99140.31
2022-12-11T20:33:22.359Z,99144.06
2022-12-11T20:35:26.267Z,99129.28
2022-12-11T20:37:28.962Z,99136.44
2022-12-11T20:39:31.880Z,99141.47
2022-12-11T20:41:33.421Z,99141.28
2022-12-11T20:43:34.803Z,99137.91
2022-12-11T20:45:36.199Z,99141.63
2022-12-11T20:47:37.608Z,99138.22
2022-12-11T20:49:39.256Z,99132.69
2022-12-11T20:51:40.968Z,99139.03
2022-12-11T20:53:42.946Z,99135.28
2022-12-11T20:55:44.746Z,99131.06
2022-12-11T20:57:46.083Z,99132.22
2022-12-11T20:59:49.037Z,99130.41
2022-12-11T21:01:50.579Z,99132.38
2022-12-11T21:03:53.381Z,99126.22
2022-12-11T21:05:54.814Z,99127.19
2022-12-11T21:07:56.579Z,99128.63
2022-12-11T21:09:57.946Z,99135.81
2022-12-11T21:12:01.492Z,99139.53
2022-12-11T21:14:03.392Z,99141.63
2022-12-11T21:16:07.103Z,99138.41
2022-12-11T21:18:08.926Z,99139.22
2022-12-11T21:20:10.620Z,99143.41
2022-12-11T21:22:12.179Z,99140.03
2022-12-11T21:24:26.477Z,99143.88
2022-12-11T21:26:27.900Z,99140.78
2022-12-11T21:28:35.029Z,99139.34
2022-12-11T21:30:40.052Z,99144.88
2022-12-11T21:32:41.458Z,99144.88
2022-12-11T21:34:42.839Z,99145.38
2022-12-11T21:36:45.025Z,99150.75
2022-12-11T21:38:47.515Z,99148.00
2022-12-11T21:40:49.177Z,99139.22
2022-12-11T21:42:50.555Z,99143.13
2022-12-11T21:47:13.343Z,99135.16
2022-12-11T21:49:14.721Z,99142.94
2022-12-11T21:51:34.078Z,99148.34
2022-12-11T21:53:38.271Z,99143.13
2022-12-11T21:55:41.358Z,99137.59
2022-12-11T21:57:42.725Z,99153.53
2022-12-11T21:59:44.188Z,99147.34
2022-12-11T22:01:46.167Z,99147.34
2022-12-11T22:03:48.882Z,99151.56
2022-12-11T22:05:50.320Z,99147.03
2022-12-11T22:07:51.760Z,99149.63
2022-12-11T22:09:53.167Z,99154.97
2022-12-11T22:11:58.334Z,99156.31
2022-12-11T22:14:00.522Z,99154.50
2022-12-11T22:16:01.894Z,99157.63
2022-12-11T22:18:03.900Z,99160.53
2022-12-11T22:20:06.022Z,99151.91
2022-12-11T22:22:07.403Z,99154.34
2022-12-11T22:24:09.118Z,99162.94
2022-12-11T22:26:23.032Z,99157.59
2022-12-11T22:28:24.835Z,99154.50
2022-12-11T22:30:26.308Z,99157.97
2022-12-11T22:32:27.790Z,99160.56
2022-12-11T22:34:29.560Z,99162.81
2022-12-11T22:36:30.953Z,99161.84
2022-12-11T22:38:33.563Z,99168.50
2022-12-11T22:40:39.870Z,99157.47
2022-12-11T22:42:41.283Z,99162.66
2022-12-11T22:44:42.677Z,99161.53
2022-12-11T22:46:49.737Z,99168.88
2022-12-11T22:48:52.069Z,99153.59
2022-12-11T22:50:53.458Z,99154.56
2022-12-11T22:52:54.851Z,99158.94
2022-12-11T22:54:56.423Z,99163.00
2022-12-11T22:56:57.929Z,99161.38
2022-12-11T22:58:59.463Z,99161.88
2022-12-11T23:01:01.617Z,99158.31
2022-12-11T23:03:03.789Z,99158.47
2022-12-11T23:05:06.382Z,99159.75
2022-12-11T23:07:08.109Z,99157.97
2022-12-11T23:09:10.826Z,99159.59
2022-12-11T23:11:13.200Z,99165.78
2022-12-11T23:13:14.724Z,99162.53
2022-12-11T23:15:16.500Z,99170.34
2022-12-11T23:17:17.872Z,99168.38
2022-12-11T23:19:25.291Z,99165.59
2022-12-11T23:21:28.063Z,99160.41
2022-12-11T23:23:29.547Z,99163.97
2022-12-11T23:25:30.920Z,99168.22
2022-12-11T23:27:32.360Z,99169.53
2022-12-11T23:29:33.788Z,99164.34
2022-12-11T23:31:35.640Z,99167.28
2022-12-11T23:33:37.370Z,99171.31
2022-12-11T23:35:38.771Z,99174.06
2022-12-11T23:37:40.148Z,99173.91
2022-12-11T23:39:41.548Z,99177.13
2022-12-11T23:41:43.207Z,99175.19
2022-12-11T23:43:44.614Z,99173.09
2022-12-11T23:45:46.647Z,99178.16
2022-12-11T23:47:48.088Z,99175.69
2022-12-11T23:49:49.493Z,99176.34
2022-12-11T23:51:50.908Z,99179.28
2022-12-11T23:53:53.094Z,99179.94
2022-12-11T23:55:55.277Z,99180.75
2022-12-11T23:57:56.640Z,99183.50
2022-12-11T23:59:57.980Z,99180.91
